sensor_id;sensor_type;location;lat;lon;timestamp;pressure;altitude;pressure_sealevel;temperature;humidity
53089;BME280;38968;47.696;17.540;2023-02-17T00:04:12;10136000.0;;;1.56;69.4541
53089;BME280;38968;47.696;17.540;2023-02-17T00:09:13;10137080.0;;;1.26;68.78027
53089;BME280;38968;47.696;17.540;2023-02-17T00:14:13;10137050.0;;;1.6;69.8877
53089;BME280;38968;47.696;17.540;2023-02-17T00:19:12;10136420.0;;;1.54;68.99219
53089;BME280;38968;47.696;17.540;2023-02-17T00:24:12;10136840.0;;;1.31;69.05566
53089;BME280;38968;47.696;17.540;2023-02-17T00:29:13;10136900.0;;;1.06;69.50781
53089;BME280;38968;47.696;17.540;2023-02-17T00:34:13;10138350.0;;;0.85;70.02051
53089;BME280;38968;47.696;17.540;2023-02-17T00:39:14;10138160.0;;;0.8;70.05762
53089;BME280;38968;47.696;17.540;2023-02-17T00:44:17;10138020.0;;;0.89;69.65723
53089;BME280;38968;47.696;17.540;2023-02-17T00:49:17;10136660.0;;;1.11;70.35254
53089;BME280;38968;47.696;17.540;2023-02-17T00:54:13;10137260.0;;;1.1;69.50195
53089;BME280;38968;47.696;17.540;2023-02-17T00:59:12;10137630.0;;;1.16;69.63672
53089;BME280;38968;47.696;17.540;2023-02-17T01:04:12;10138040.0;;;1.13;70.18848
53089;BME280;38968;47.696;17.540;2023-02-17T01:09:13;10135300.0;;;1.32;69.93066
53089;BME280;38968;47.696;17.540;2023-02-17T01:14:13;10135650.0;;;1.34;69.57617
53089;BME280;38968;47.696;17.540;2023-02-17T01:19:16;10135940.0;;;1.42;69.55566
53089;BME280;38968;47.696;17.540;2023-02-17T01:24:12;10136170.0;;;1.55;68.7373
53089;BME280;38968;47.696;17.540;2023-02-17T01:29:12;10135510.0;;;1.6;68.78027
53089;BME280;38968;47.696;17.540;2023-02-17T01:34:12;10134520.0;;;1.52;67.94922
53089;BME280;38968;47.696;17.540;2023-02-17T01:39:14;10134170.0;;;1.5;68.02441
53089;BME280;38968;47.696;17.540;2023-02-17T01:44:23;10133330.0;;;1.54;67.87305
53089;BME280;38968;47.696;17.540;2023-02-17T01:49:18;10133950.0;;;1.57;67.32031
53089;BME280;38968;47.696;17.540;2023-02-17T01:54:18;10132040.0;;;1.54;67.58203
53089;BME280;38968;47.696;17.540;2023-02-17T01:59:17;10131860.0;;;1.32;67.61426
53089;BME280;38968;47.696;17.540;2023-02-17T02:04:13;10131150.0;;;1.46;67.80469
53089;BME280;38968;47.696;17.540;2023-02-17T02:14:12;10131700.0;;;1.32;67.83984
53089;BME280;38968;47.696;17.540;2023-02-17T02:19:55;10131240.0;;;1.25;67.58203
53089;BME280;38968;47.696;17.540;2023-02-17T02:24:27;10132240.0;;;1.59;67.92773
53089;BME280;38968;47.696;17.540;2023-02-17T02:29:49;10130630.0;;;1.65;67.11914
53089;BME280;38968;47.696;17.540;2023-02-17T02:34:23;10131010.0;;;1.73;66.70605
53089;BME280;38968;47.696;17.540;2023-02-17T02:39:16;10129840.0;;;1.6;66.63086
53089;BME280;38968;47.696;17.540;2023-02-17T02:44:14;10130060.0;;;1.72;66.68164
53089;BME280;38968;47.696;17.540;2023-02-17T02:49:12;10130180.0;;;1.82;66.51758
53089;BME280;38968;47.696;17.540;2023-02-17T02:54:32;10128900.0;;;1.63;65.9502
53089;BME280;38968;47.696;17.540;2023-02-17T03:04:16;10127710.0;;;1.45;65.7207
53089;BME280;38968;47.696;17.540;2023-02-17T03:09:16;10127980.0;;;1.48;66.10742
53089;BME280;38968;47.696;17.540;2023-02-17T03:14:14;10128020.0;;;1.38;66.73047
53089;BME280;38968;47.696;17.540;2023-02-17T03:19:14;10128670.0;;;1.69;66.92285
53089;BME280;38968;47.696;17.540;2023-02-17T03:24:12;10127900.0;;;1.93;66.39941
53089;BME280;38968;47.696;17.540;2023-02-17T03:29:13;10127570.0;;;1.95;65.6084
53089;BME280;38968;47.696;17.540;2023-02-17T03:34:12;10128650.0;;;2.09;65.69727
53089;BME280;38968;47.696;17.540;2023-02-17T03:39:12;10127740.0;;;1.96;65.78906
53089;BME280;38968;47.696;17.540;2023-02-17T03:44:12;10126910.0;;;2.03;65.96777
53089;BME280;38968;47.696;17.540;2023-02-17T03:49:12;10127110.0;;;2.1;66.56152
53089;BME280;38968;47.696;17.540;2023-02-17T03:54:12;10126970.0;;;2.19;67.05664
53089;BME280;38968;47.696;17.540;2023-02-17T03:59:12;10127900.0;;;2.36;66.85938
53089;BME280;38968;47.696;17.540;2023-02-17T04:04:12;10127830.0;;;2.18;66.91992
53089;BME280;38968;47.696;17.540;2023-02-17T04:09:12;10125790.0;;;2.48;66.54102
53089;BME280;38968;47.696;17.540;2023-02-17T04:14:12;10126780.0;;;2.13;67.22754
53089;BME280;38968;47.696;17.540;2023-02-17T04:19:12;10125250.0;;;2.4;67.06738
53089;BME280;38968;47.696;17.540;2023-02-17T04:24:12;10126380.0;;;2.44;67.27637
53089;BME280;38968;47.696;17.540;2023-02-17T04:29:12;10126890.0;;;2.44;68.40918
53089;BME280;38968;47.696;17.540;2023-02-17T04:34:12;10127510.0;;;2.71;67.86914
53089;BME280;38968;47.696;17.540;2023-02-17T04:39:12;10127930.0;;;2.91;68.01367
53089;BME280;38968;47.696;17.540;2023-02-17T04:44:12;10127580.0;;;2.91;67.40527
53089;BME280;38968;47.696;17.540;2023-02-17T04:49:12;10126950.0;;;2.83;67.91016
53089;BME280;38968;47.696;17.540;2023-02-17T04:54:12;10126570.0;;;2.97;67.94336
53089;BME280;38968;47.696;17.540;2023-02-17T04:59:12;10125230.0;;;3.07;67.95996
53089;BME280;38968;47.696;17.540;2023-02-17T05:04:12;10125170.0;;;3.16;67.93945
53089;BME280;38968;47.696;17.540;2023-02-17T05:09:12;10124370.0;;;3.32;67.5498
53089;BME280;38968;47.696;17.540;2023-02-17T05:14:13;10125450.0;;;3.46;67.44727
53089;BME280;38968;47.696;17.540;2023-02-17T05:19:12;10125140.0;;;3.58;67.51172
53089;BME280;38968;47.696;17.540;2023-02-17T05:24:12;10125270.0;;;3.72;67.28613
53089;BME280;38968;47.696;17.540;2023-02-17T05:29:13;10124470.0;;;3.66;66.55664
53089;BME280;38968;47.696;17.540;2023-02-17T05:34:12;10124860.0;;;3.79;66.81152
53089;BME280;38968;47.696;17.540;2023-02-17T05:39:12;10124510.0;;;3.51;66.91504
53089;BME280;38968;47.696;17.540;2023-02-17T05:44:12;10124730.0;;;3.63;66.84473
53089;BME280;38968;47.696;17.540;2023-02-17T05:49:12;10125240.0;;;2.85;68.89063
53089;BME280;38968;47.696;17.540;2023-02-17T05:54:12;10124730.0;;;3.37;67.82617
53089;BME280;38968;47.696;17.540;2023-02-17T05:59:12;10124120.0;;;3.37;68.34375
53089;BME280;38968;47.696;17.540;2023-02-17T06:04:12;10124170.0;;;3.51;68.33203
53089;BME280;38968;47.696;17.540;2023-02-17T06:09:12;10125030.0;;;3.77;68.23828
53089;BME280;38968;47.696;17.540;2023-02-17T06:14:12;10125010.0;;;4;67.97168
53089;BME280;38968;47.696;17.540;2023-02-17T06:19:13;10125110.0;;;4.04;67.82129
53089;BME280;38968;47.696;17.540;2023-02-17T06:24:12;10124780.0;;;4.38;67.64941
53089;BME280;38968;47.696;17.540;2023-02-17T06:29:12;10125220.0;;;4.42;67.18262
53089;BME280;38968;47.696;17.540;2023-02-17T06:34:12;10125220.0;;;4.42;67.04688
53089;BME280;38968;47.696;17.540;2023-02-17T06:39:12;10125760.0;;;4.77;67.0332
53089;BME280;38968;47.696;17.540;2023-02-17T06:44:12;10124860.0;;;4.96;66.70117
53089;BME280;38968;47.696;17.540;2023-02-17T06:49:13;10125490.0;;;5.07;65.93945
53089;BME280;38968;47.696;17.540;2023-02-17T06:54:12;10125940.0;;;5.16;65.86133
53089;BME280;38968;47.696;17.540;2023-02-17T06:59:12;10125590.0;;;5.14;65.66699
53089;BME280;38968;47.696;17.540;2023-02-17T07:04:12;10124920.0;;;4.87;66.6084
53089;BME280;38968;47.696;17.540;2023-02-17T07:09:12;10125870.0;;;4.87;66.94531
53089;BME280;38968;47.696;17.540;2023-02-17T07:14:12;10124220.0;;;5.16;67.13867
53089;BME280;38968;47.696;17.540;2023-02-17T07:19:12;10123740.0;;;5.3;66.70801
53089;BME280;38968;47.696;17.540;2023-02-17T07:24:12;10123770.0;;;5.42;66.33301
53089;BME280;38968;47.696;17.540;2023-02-17T07:29:12;10123250.0;;;5.45;66.29199
53089;BME280;38968;47.696;17.540;2023-02-17T07:34:12;10124520.0;;;5.66;66.42578
53089;BME280;38968;47.696;17.540;2023-02-17T07:39:12;10124270.0;;;5.71;66.00195
53089;BME280;38968;47.696;17.540;2023-02-17T07:44:12;10123070.0;;;5.77;66.57813
53089;BME280;38968;47.696;17.540;2023-02-17T07:49:12;10122660.0;;;5.84;67.28906
53089;BME280;38968;47.696;17.540;2023-02-17T07:54:12;10124400.0;;;5.55;67.94531
53089;BME280;38968;47.696;17.540;2023-02-17T07:59:13;10125200.0;;;5.99;67.42578
53089;BME280;38968;47.696;17.540;2023-02-17T08:04:12;10124390.0;;;6.24;67.10352
53089;BME280;38968;47.696;17.540;2023-02-17T08:09:12;10123850.0;;;6.16;67.125
53089;BME280;38968;47.696;17.540;2023-02-17T08:14:12;10123170.0;;;6.22;67.06543
53089;BME280;38968;47.696;17.540;2023-02-17T08:19:12;10122190.0;;;6.48;66.7207
53089;BME280;38968;47.696;17.540;2023-02-17T08:24:12;10122660.0;;;6.64;66.26953
53089;BME280;38968;47.696;17.540;2023-02-17T08:29:12;10120760.0;;;6.68;66.60352
53089;BME280;38968;47.696;17.540;2023-02-17T08:34:13;10122060.0;;;6.68;67.16992
53089;BME280;38968;47.696;17.540;2023-02-17T08:39:14;10121920.0;;;6.84;67.10449
53089;BME280;38968;47.696;17.540;2023-02-17T08:44:14;10121690.0;;;7.01;66.90332
53089;BME280;38968;47.696;17.540;2023-02-17T08:49:14;10121500.0;;;6.96;67.11328
53089;BME280;38968;47.696;17.540;2023-02-17T08:54:12;10120710.0;;;7.39;66.64551
53089;BME280;38968;47.696;17.540;2023-02-17T08:59:13;10120890.0;;;7.44;65.96191
53089;BME280;38968;47.696;17.540;2023-02-17T09:04:13;10121400.0;;;7.93;65.18262
53089;BME280;38968;47.696;17.540;2023-02-17T09:09:15;10120280.0;;;8;65.25
53089;BME280;38968;47.696;17.540;2023-02-17T09:14:13;10120780.0;;;8.42;64.24414
53089;BME280;38968;47.696;17.540;2023-02-17T09:19:12;10120180.0;;;8.55;63.19238
53089;BME280;38968;47.696;17.540;2023-02-17T09:24:13;10120480.0;;;8.86;62.30273
53089;BME280;38968;47.696;17.540;2023-02-17T09:29:13;10119690.0;;;8.86;62.23438
53089;BME280;38968;47.696;17.540;2023-02-17T09:34:13;10119280.0;;;9.09;61.76465
53089;BME280;38968;47.696;17.540;2023-02-17T09:39:12;10118870.0;;;9.36;61.19629
53089;BME280;38968;47.696;17.540;2023-02-17T09:44:25;10116460.0;;;9.68;60.91016
53089;BME280;38968;47.696;17.540;2023-02-17T09:49:20;10118380.0;;;9.83;60.13184
53089;BME280;38968;47.696;17.540;2023-02-17T09:54:20;10118480.0;;;10.1;59.37793
53089;BME280;38968;47.696;17.540;2023-02-17T09:59:20;10117280.0;;;10.38;59.00391
53089;BME280;38968;47.696;17.540;2023-02-17T10:09:39;10116330.0;;;11.18;57.04492
53089;BME280;38968;47.696;17.540;2023-02-17T10:14:30;10115980.0;;;11.2;55.34863
53089;BME280;38968;47.696;17.540;2023-02-17T10:19:15;10116160.0;;;11.18;53.28906
53089;BME280;38968;47.696;17.540;2023-02-17T10:24:12;10115110.0;;;11.64;52.68848
53089;BME280;38968;47.696;17.540;2023-02-17T10:29:27;10115460.0;;;11.86;52.24316
53089;BME280;38968;47.696;17.540;2023-02-17T10:39:31;10114660.0;;;12.11;53.06641
53089;BME280;38968;47.696;17.540;2023-02-17T10:44:15;10114740.0;;;12.2;52.83691
53089;BME280;38968;47.696;17.540;2023-02-17T10:49:24;10114220.0;;;12.08;51.45117
53089;BME280;38968;47.696;17.540;2023-02-17T10:54:29;10111080.0;;;12;51.33789
53089;BME280;38968;47.696;17.540;2023-02-17T10:59:23;10112220.0;;;11.99;52.13184
53089;BME280;38968;47.696;17.540;2023-02-17T11:04:12;10110460.0;;;12.23;51.90625
53089;BME280;38968;47.696;17.540;2023-02-17T11:09:25;10110730.0;;;11.91;51.32617
53089;BME280;38968;47.696;17.540;2023-02-17T11:14:22;10110280.0;;;12.31;52.07715
53089;BME280;38968;47.696;17.540;2023-02-17T11:24:13;10106880.0;;;12.22;53.7832
53089;BME280;38968;47.696;17.540;2023-02-17T11:29:17;10106790.0;;;12.21;53.21777
53089;BME280;38968;47.696;17.540;2023-02-17T11:34:14;10105650.0;;;12.28;52.58105
53089;BME280;38968;47.696;17.540;2023-02-17T11:39:17;10104780.0;;;12.23;52.94434
53089;BME280;38968;47.696;17.540;2023-02-17T11:44:23;10105320.0;;;12;53.20508
53089;BME280;38968;47.696;17.540;2023-02-17T11:54:20;10105560.0;;;12.25;54.04199
53089;BME280;38968;47.696;17.540;2023-02-17T11:59:26;10104960.0;;;12.2;53.42383
53089;BME280;38968;47.696;17.540;2023-02-17T12:09:25;10103600.0;;;12.76;51.60059
53089;BME280;38968;47.696;17.540;2023-02-17T12:19:37;10101600.0;;;13.57;50.58496
53089;BME280;38968;47.696;17.540;2023-02-17T12:24:18;10102430.0;;;13.91;50.05566
53089;BME280;38968;47.696;17.540;2023-02-17T12:29:24;10100920.0;;;14.07;49.70313
53089;BME280;38968;47.696;17.540;2023-02-17T12:39:23;10100550.0;;;14.22;50.4502
53089;BME280;38968;47.696;17.540;2023-02-17T12:44:16;10099610.0;;;14.64;49.01465
53089;BME280;38968;47.696;17.540;2023-02-17T12:49:22;10099990.0;;;14.4;49.17188
53089;BME280;38968;47.696;17.540;2023-02-17T12:54:21;10098850.0;;;14.41;49.05859
53089;BME280;38968;47.696;17.540;2023-02-17T12:59:14;10096830.0;;;14.44;48.90039
53089;BME280;38968;47.696;17.540;2023-02-17T13:04:14;10096460.0;;;14.56;49.06348
53089;BME280;38968;47.696;17.540;2023-02-17T13:14:37;10096380.0;;;14.53;48.61914
53089;BME280;38968;47.696;17.540;2023-02-17T13:19:13;10096030.0;;;14.49;49.35742
53089;BME280;38968;47.696;17.540;2023-02-17T13:24:29;10095970.0;;;14.32;49.82422
53089;BME280;38968;47.696;17.540;2023-02-17T13:39:29;10096060.0;;;13.69;50.77148
53089;BME280;38968;47.696;17.540;2023-02-17T13:49:18;10092060.0;;;14.09;50.83008
53089;BME280;38968;47.696;17.540;2023-02-17T13:54:13;10092550.0;;;14.33;51.1123
53089;BME280;38968;47.696;17.540;2023-02-17T13:59:16;10092550.0;;;14.35;50.65137
53089;BME280;38968;47.696;17.540;2023-02-17T14:04:23;10092030.0;;;14.3;50.31055
53089;BME280;38968;47.696;17.540;2023-02-17T14:09:27;10092050.0;;;14.18;49.79785
53089;BME280;38968;47.696;17.540;2023-02-17T14:14:13;10091650.0;;;13.91;49.62793
53089;BME280;38968;47.696;17.540;2023-02-17T14:19:17;10090570.0;;;14.11;49.80078
53089;BME280;38968;47.696;17.540;2023-02-17T14:24:35;10090600.0;;;13.94;50.10645
53089;BME280;38968;47.696;17.540;2023-02-17T14:29:13;10089850.0;;;14.21;49.96289
53089;BME280;38968;47.696;17.540;2023-02-17T14:34:29;10089540.0;;;13.99;49.81055
53089;BME280;38968;47.696;17.540;2023-02-17T14:39:14;10088210.0;;;14.03;49.75781
53089;BME280;38968;47.696;17.540;2023-02-17T14:44:12;10088480.0;;;13.99;50.30859
53089;BME280;38968;47.696;17.540;2023-02-17T14:49:13;10087950.0;;;14.03;50.52148
53089;BME280;38968;47.696;17.540;2023-02-17T14:54:14;10086650.0;;;13.93;50.83398
53089;BME280;38968;47.696;17.540;2023-02-17T14:59:12;10085480.0;;;14.1;50.51855
53089;BME280;38968;47.696;17.540;2023-02-17T15:04:12;10085830.0;;;14.14;50.26758
53089;BME280;38968;47.696;17.540;2023-02-17T15:09:17;10085230.0;;;14.06;49.99219
53089;BME280;38968;47.696;17.540;2023-02-17T15:14:17;10084950.0;;;14.16;49.50586
53089;BME280;38968;47.696;17.540;2023-02-17T15:19:14;10084150.0;;;14.24;49.42188
53089;BME280;38968;47.696;17.540;2023-02-17T15:24:18;10083920.0;;;14.06;49.79492
53089;BME280;38968;47.696;17.540;2023-02-17T15:29:18;10082490.0;;;14.16;49.54004
53089;BME280;38968;47.696;17.540;2023-02-17T15:34:17;10082350.0;;;14;49.76465
53089;BME280;38968;47.696;17.540;2023-02-17T15:39:15;10081990.0;;;14.04;49.52637
53089;BME280;38968;47.696;17.540;2023-02-17T15:44:22;10082610.0;;;14.01;49.41895
53089;BME280;38968;47.696;17.540;2023-02-17T15:49:13;10082790.0;;;14.01;49.31543
53089;BME280;38968;47.696;17.540;2023-02-17T15:54:12;10082610.0;;;14.03;49.17773
53089;BME280;38968;47.696;17.540;2023-02-17T15:59:17;10081680.0;;;13.77;49.50879
53089;BME280;38968;47.696;17.540;2023-02-17T16:04:14;10081520.0;;;13.7;49.59277
53089;BME280;38968;47.696;17.540;2023-02-17T16:09:14;10081110.0;;;13.52;50.04785
53089;BME280;38968;47.696;17.540;2023-02-17T16:14:21;10081630.0;;;13.58;50.13477
53089;BME280;38968;47.696;17.540;2023-02-17T16:19:14;10081910.0;;;13.43;50.40625
53089;BME280;38968;47.696;17.540;2023-02-17T16:24:12;10080350.0;;;13.35;50.69922
53089;BME280;38968;47.696;17.540;2023-02-17T16:29:16;10080230.0;;;13.52;50.54395
53089;BME280;38968;47.696;17.540;2023-02-17T16:34:14;10082410.0;;;13.61;50.68262
53089;BME280;38968;47.696;17.540;2023-02-17T16:39:15;10082590.0;;;13.56;51.56738
53089;BME280;38968;47.696;17.540;2023-02-17T16:44:14;10082310.0;;;13.69;51.96289
53089;BME280;38968;47.696;17.540;2023-02-17T16:54:14;10081360.0;;;13.63;52.65137
53089;BME280;38968;47.696;17.540;2023-02-17T16:59:14;10080680.0;;;13.45;53.61133
53089;BME280;38968;47.696;17.540;2023-02-17T17:04:13;10078770.0;;;13.35;53.96973
53089;BME280;38968;47.696;17.540;2023-02-17T17:09:17;10079140.0;;;13.16;54.53516
53089;BME280;38968;47.696;17.540;2023-02-17T17:14:13;10078620.0;;;13.18;54.66309
53089;BME280;38968;47.696;17.540;2023-02-17T17:19:13;10078340.0;;;13.27;54.3291
53089;BME280;38968;47.696;17.540;2023-02-17T17:24:12;10076800.0;;;13.05;54.81055
53089;BME280;38968;47.696;17.540;2023-02-17T17:29:14;10077390.0;;;13.21;54.33301
53089;BME280;38968;47.696;17.540;2023-02-17T17:34:13;10075010.0;;;13.35;54.14258
53089;BME280;38968;47.696;17.540;2023-02-17T17:39:18;10075450.0;;;13.33;54.11719
53089;BME280;38968;47.696;17.540;2023-02-17T17:44:13;10074630.0;;;13.5;53.33984
53089;BME280;38968;47.696;17.540;2023-02-17T17:49:14;10073340.0;;;13.39;53.67383
53089;BME280;38968;47.696;17.540;2023-02-17T17:54:13;10072620.0;;;13.47;53.52148
53089;BME280;38968;47.696;17.540;2023-02-17T17:59:14;10072100.0;;;13.47;53.2793
53089;BME280;38968;47.696;17.540;2023-02-17T18:04:13;10072190.0;;;13.45;52.97559
53089;BME280;38968;47.696;17.540;2023-02-17T18:09:20;10072620.0;;;13.5;52.9707
53089;BME280;38968;47.696;17.540;2023-02-17T18:14:13;10073030.0;;;13.63;52.16504
53089;BME280;38968;47.696;17.540;2023-02-17T18:19:14;10073640.0;;;13.69;52.00977
53089;BME280;38968;47.696;17.540;2023-02-17T18:24:14;10073650.0;;;13.64;51.72656
53089;BME280;38968;47.696;17.540;2023-02-17T18:29:13;10074620.0;;;13.6;52.23145
53089;BME280;38968;47.696;17.540;2023-02-17T18:34:13;10073980.0;;;13.75;52.15625
53089;BME280;38968;47.696;17.540;2023-02-17T18:39:13;10074100.0;;;13.56;52.61816
53089;BME280;38968;47.696;17.540;2023-02-17T18:44:14;10074090.0;;;13.57;53.0498
53089;BME280;38968;47.696;17.540;2023-02-17T18:49:12;10074360.0;;;13.56;52.98828
53089;BME280;38968;47.696;17.540;2023-02-17T18:54:14;10073810.0;;;13.7;52.63574
53089;BME280;38968;47.696;17.540;2023-02-17T18:59:13;10073060.0;;;13.5;52.86621
53089;BME280;38968;47.696;17.540;2023-02-17T19:04:14;10071470.0;;;13.54;52.49023
53089;BME280;38968;47.696;17.540;2023-02-17T19:09:13;10071380.0;;;13.6;52.47363
53089;BME280;38968;47.696;17.540;2023-02-17T19:14:13;10072520.0;;;13.59;52.11328
53089;BME280;38968;47.696;17.540;2023-02-17T19:19:14;10073060.0;;;13.47;52.03027
53089;BME280;38968;47.696;17.540;2023-02-17T19:24:13;10072540.0;;;13.42;51.72363
53089;BME280;38968;47.696;17.540;2023-02-17T19:29:13;10072180.0;;;13.52;51.69043
53089;BME280;38968;47.696;17.540;2023-02-17T19:34:14;10071230.0;;;13.44;51.77246
53089;BME280;38968;47.696;17.540;2023-02-17T19:39:13;10070160.0;;;13.51;51.37598
53089;BME280;38968;47.696;17.540;2023-02-17T19:44:13;10069990.0;;;13.49;51.22363
53089;BME280;38968;47.696;17.540;2023-02-17T19:49:15;10069400.0;;;13.38;51.47559
53089;BME280;38968;47.696;17.540;2023-02-17T19:54:13;10068660.0;;;13.07;51.74023
53089;BME280;38968;47.696;17.540;2023-02-17T19:59:13;10068530.0;;;13.34;51.03223
53089;BME280;38968;47.696;17.540;2023-02-17T20:04:13;10068780.0;;;13.43;50.5918
53089;BME280;38968;47.696;17.540;2023-02-17T20:09:15;10068200.0;;;13.23;51.05371
53089;BME280;38968;47.696;17.540;2023-02-17T20:14:13;10067290.0;;;13.39;50.61035
53089;BME280;38968;47.696;17.540;2023-02-17T20:19:12;10066560.0;;;13.05;51.12695
53089;BME280;38968;47.696;17.540;2023-02-17T20:24:13;10066570.0;;;13.5;50.11426
53089;BME280;38968;47.696;17.540;2023-02-17T20:29:13;10066030.0;;;13.05;51.18457
53089;BME280;38968;47.696;17.540;2023-02-17T20:34:32;10065920.0;;;13.2;50.81934
53089;BME280;38968;47.696;17.540;2023-02-17T20:39:13;10066570.0;;;12.96;50.91895
53089;BME280;38968;47.696;17.540;2023-02-17T20:44:12;10067360.0;;;12.95;51.20605
53089;BME280;38968;47.696;17.540;2023-02-17T20:49:14;10068730.0;;;13.15;50.83594
53089;BME280;38968;47.696;17.540;2023-02-17T20:54:13;10068980.0;;;13.27;50.50391
53089;BME280;38968;47.696;17.540;2023-02-17T20:59:14;10070190.0;;;13.38;50.23828
53089;BME280;38968;47.696;17.540;2023-02-17T21:04:14;10070810.0;;;13.32;50.15039
53089;BME280;38968;47.696;17.540;2023-02-17T21:09:14;10070880.0;;;13.43;49.67773
53089;BME280;38968;47.696;17.540;2023-02-17T21:14:14;10072160.0;;;13.61;49.44434
53089;BME280;38968;47.696;17.540;2023-02-17T21:19:13;10073310.0;;;13.56;49.98145
53089;BME280;38968;47.696;17.540;2023-02-17T21:24:13;10074100.0;;;13.56;50.14258
53089;BME280;38968;47.696;17.540;2023-02-17T21:29:13;10075290.0;;;13.24;50.92871
53089;BME280;38968;47.696;17.540;2023-02-17T21:34:13;10075760.0;;;12.99;51.32617
53089;BME280;38968;47.696;17.540;2023-02-17T21:39:13;10075740.0;;;13.12;51.36523
53089;BME280;38968;47.696;17.540;2023-02-17T21:44:12;10076170.0;;;13.16;51.1377
53089;BME280;38968;47.696;17.540;2023-02-17T21:49:13;10076950.0;;;13.22;50.94824
53089;BME280;38968;47.696;17.540;2023-02-17T21:54:12;10076760.0;;;13.33;50.77734
53089;BME280;38968;47.696;17.540;2023-02-17T21:59:13;10077650.0;;;13.23;51.08789
53089;BME280;38968;47.696;17.540;2023-02-17T22:04:13;10077830.0;;;13.19;51.26953
53089;BME280;38968;47.696;17.540;2023-02-17T22:09:13;10077660.0;;;13.17;51.49707
53089;BME280;38968;47.696;17.540;2023-02-17T22:14:14;10077230.0;;;13.09;51.7666
53089;BME280;38968;47.696;17.540;2023-02-17T22:19:14;10077650.0;;;13.23;51.40039
53089;BME280;38968;47.696;17.540;2023-02-17T22:24:13;10077940.0;;;13;52.2627
53089;BME280;38968;47.696;17.540;2023-02-17T22:29:12;10076210.0;;;12.85;52.55664
53089;BME280;38968;47.696;17.540;2023-02-17T22:34:13;10076150.0;;;12.66;52.8457
53089;BME280;38968;47.696;17.540;2023-02-17T22:39:12;10075430.0;;;12.8;52.72461
53089;BME280;38968;47.696;17.540;2023-02-17T22:44:12;10075590.0;;;12.95;52.14258
53089;BME280;38968;47.696;17.540;2023-02-17T22:49:12;10075500.0;;;12.96;52.05078
53089;BME280;38968;47.696;17.540;2023-02-17T22:54:12;10075040.0;;;13.09;51.71973
53089;BME280;38968;47.696;17.540;2023-02-17T22:59:12;10074680.0;;;13.19;51.43066
53089;BME280;38968;47.696;17.540;2023-02-17T23:04:13;10074770.0;;;13.15;51.35645
53089;BME280;38968;47.696;17.540;2023-02-17T23:09:14;10075810.0;;;13.24;51.47168
53089;BME280;38968;47.696;17.540;2023-02-17T23:14:13;10074800.0;;;12.94;52.18652
53089;BME280;38968;47.696;17.540;2023-02-17T23:19:16;10075250.0;;;12.89;52.72266
53089;BME280;38968;47.696;17.540;2023-02-17T23:24:14;10074280.0;;;12.92;53.23535
53089;BME280;38968;47.696;17.540;2023-02-17T23:29:13;10072920.0;;;13.26;53.69141
53089;BME280;38968;47.696;17.540;2023-02-17T23:34:14;10072190.0;;;13.43;55.58496
53089;BME280;38968;47.696;17.540;2023-02-17T23:39:13;10071970.0;;;14.19;54.60449
53089;BME280;38968;47.696;17.540;2023-02-17T23:44:14;10071600.0;;;14.31;55.10645
53089;BME280;38968;47.696;17.540;2023-02-17T23:49:14;10071350.0;;;14.68;54.58398
53089;BME280;38968;47.696;17.540;2023-02-17T23:54:13;10071870.0;;;15.08;53.92676
53089;BME280;38968;47.696;17.540;2023-02-17T23:59:13;10071260.0;;;15.06;54.31934
